Time;durP1;ratioP1;P1;durP2;ratioP2;P2;SDS_P1;SDS_P2;PMS_P1;PMS_P2;Temp;Humidity;BMP_temperature;BMP_pressure;BME280_temperature;BME280_humidity;BME280_pressure;Samples;Min_cycle;Max_cycle;Signal;HPM_P1;HPM_P2
2022/02/12 00:00:52;;;;;;;0.60;0.60;;;20.50;39.40;;;;;;5094447;28;20510;-73
2022/02/12 00:03:18;;;;;;;0.93;0.70;;;20.40;39.40;;;;;;5112566;28;20056;-73
2022/02/12 00:05:43;;;;;;;0.60;0.60;;;20.40;39.40;;;;;;5112581;28;20126;-73
2022/02/12 00:08:09;;;;;;;1.27;0.60;;;20.40;39.40;;;;;;5112430;28;20059;-73
2022/02/12 00:10:35;;;;;;;0.60;0.60;;;20.40;39.40;;;;;;5112511;28;20100;-73
2022/02/12 00:13:00;;;;;;;1.23;0.70;;;20.40;39.40;;;;;;5112453;28;20063;-73
2022/02/12 00:15:26;;;;;;;0.70;0.70;;;20.40;39.40;;;;;;5112725;28;20058;-73
2022/02/12 00:17:54;;;;;;;1.00;0.80;;;20.40;39.40;;;;;;5113918;28;20077;-73
2022/02/12 00:20:19;;;;;;;0.90;0.70;;;20.40;39.40;;;;;;5115852;28;20071;-73
2022/02/12 00:22:45;;;;;;;2.45;0.93;;;20.40;39.40;;;;;;5116511;28;20086;-73
2022/02/12 00:25:11;;;;;;;0.90;0.68;;;20.40;39.40;;;;;;5115769;28;20058;-73
2022/02/12 00:27:36;;;;;;;1.63;0.70;;;20.40;39.40;;;;;;5115871;28;20066;-72
2022/02/12 00:30:03;;;;;;;0.82;0.70;;;20.40;39.40;;;;;;5115681;28;20048;-73
2022/02/12 00:32:29;;;;;;;0.85;0.80;;;20.40;39.40;;;;;;5114310;28;20059;-72
2022/02/12 00:34:54;;;;;;;1.13;0.70;;;20.40;39.40;;;;;;5115771;28;20052;-73
2022/02/12 00:37:20;;;;;;;1.45;0.93;;;20.40;39.40;;;;;;5097457;28;20059;-73
2022/02/12 00:39:46;;;;;;;0.80;0.70;;;20.40;39.40;;;;;;5115549;28;20058;-73
2022/02/12 00:42:11;;;;;;;1.00;0.80;;;20.40;39.30;;;;;;5115987;28;20161;-73
2022/02/12 00:44:37;;;;;;;0.50;0.50;;;20.40;39.40;;;;;;5115672;28;20096;-73
2022/02/12 00:47:03;;;;;;;0.90;0.70;;;20.40;39.40;;;;;;5115478;28;20047;-73
2022/02/12 00:49:28;;;;;;;0.75;0.65;;;20.40;39.30;;;;;;5115469;28;20051;-73
2022/02/12 00:51:54;;;;;;;0.88;0.55;;;20.40;39.30;;;;;;5115399;28;20082;-73
2022/02/12 00:54:20;;;;;;;1.13;0.70;;;20.40;39.30;;;;;;5115746;28;20108;-73
2022/02/12 00:56:45;;;;;;;1.30;0.70;;;20.40;39.30;;;;;;5115438;28;20052;-73
2022/02/12 00:59:11;;;;;;;1.88;0.80;;;20.40;39.30;;;;;;5115300;28;20044;-73
2022/02/12 01:01:37;;;;;;;1.98;0.95;;;20.40;39.30;;;;;;5096665;28;20105;-73
2022/02/12 01:04:03;;;;;;;0.70;0.60;;;20.40;39.30;;;;;;5097282;28;20138;-73
2022/02/12 01:06:31;;;;;;;1.05;0.80;;;20.40;39.30;;;;;;5096972;28;20047;-73
2022/02/12 01:08:59;;;;;;;1.65;0.90;;;20.40;39.30;;;;;;5115182;28;20044;-73
2022/02/12 01:11:25;;;;;;;1.13;0.85;;;20.40;39.30;;;;;;5115182;28;20059;-73
2022/02/12 01:13:51;;;;;;;0.98;0.75;;;20.40;39.30;;;;;;5096965;28;20054;-73
2022/02/12 01:16:16;;;;;;;0.85;0.60;;;20.40;39.30;;;;;;5115175;28;20130;-73
2022/02/12 01:18:43;;;;;;;0.80;0.80;;;20.40;39.30;;;;;;5096684;28;20051;-73
2022/02/12 01:21:09;;;;;;;1.90;0.85;;;20.40;39.30;;;;;;5096565;28;20051;-73
2022/02/12 01:23:35;;;;;;;1.35;0.80;;;20.40;39.30;;;;;;5095874;28;20055;-73
2022/02/12 01:26:03;;;;;;;0.65;0.65;;;20.40;39.30;;;;;;5115300;28;20040;-73
2022/02/12 01:28:28;;;;;;;0.80;0.73;;;20.40;39.30;;;;;;5114345;28;20047;-73
2022/02/12 01:30:54;;;;;;;0.70;0.70;;;20.40;39.30;;;;;;5114877;28;20070;-73
2022/02/12 01:33:20;;;;;;;0.80;0.80;;;20.40;39.30;;;;;;5115237;28;20193;-73
2022/02/12 01:35:45;;;;;;;0.77;0.60;;;20.40;39.30;;;;;;5114870;28;20067;-73
2022/02/12 01:38:11;;;;;;;1.17;0.70;;;20.40;39.30;;;;;;5114643;28;20545;-73
2022/02/12 01:40:36;;;;;;;0.70;0.70;;;20.40;39.30;;;;;;5115275;28;20056;-73
2022/02/12 01:43:03;;;;;;;0.52;0.52;;;20.40;39.30;;;;;;5096457;28;20048;-73
2022/02/12 01:45:32;;;;;;;1.13;0.75;;;20.40;39.30;;;;;;5114615;28;20085;-73
2022/02/12 01:47:58;;;;;;;1.08;0.80;;;20.40;39.30;;;;;;5114453;28;20113;-73
2022/02/12 01:50:24;;;;;;;0.80;0.80;;;20.40;39.30;;;;;;5094766;28;20060;-73
2022/02/12 01:52:50;;;;;;;1.10;0.70;;;20.40;39.30;;;;;;5114377;28;20055;-73
2022/02/12 01:55:17;;;;;;;1.95;0.70;;;20.40;39.20;;;;;;5114403;28;20055;-73
2022/02/12 01:57:43;;;;;;;0.60;0.60;;;20.40;39.20;;;;;;5114523;28;20047;-73
2022/02/12 02:00:11;;;;;;;0.60;0.60;;;20.40;39.20;;;;;;5093903;28;20044;-73
2022/02/12 02:02:41;;;;;;;0.85;0.63;;;20.40;39.30;;;;;;5096467;28;20398;-73
2022/02/12 02:05:14;;;;;;;0.85;0.50;;;20.40;39.20;;;;;;5114244;28;20062;-73
2022/02/12 02:07:42;;;;;;;1.15;0.70;;;20.40;39.20;;;;;;5114389;28;20445;-73
2022/02/12 02:10:13;;;;;;;1.48;0.65;;;20.40;39.30;;;;;;5095983;28;20059;-73
2022/02/12 02:12:39;;;;;;;0.80;0.77;;;20.40;39.20;;;;;;5111438;28;20421;-73
2022/02/12 02:15:07;;;;;;;0.93;0.50;;;20.40;39.20;;;;;;5095811;28;20150;-73
2022/02/12 02:17:33;;;;;;;0.60;0.60;;;20.40;39.20;;;;;;5114135;28;20047;-73
2022/02/12 02:19:59;;;;;;;0.65;0.65;;;20.40;39.30;;;;;;5078847;28;20043;-73
2022/02/12 02:22:29;;;;;;;0.60;0.60;;;20.40;39.30;;;;;;5114039;28;20142;-73
2022/02/12 02:24:55;;;;;;;1.02;0.60;;;20.40;39.20;;;;;;5114067;28;20043;-73
2022/02/12 02:27:21;;;;;;;0.90;0.80;;;20.40;39.30;;;;;;5114032;28;20469;-73
2022/02/12 02:29:47;;;;;;;0.50;0.50;;;20.40;39.30;;;;;;5112575;28;20048;-73
2022/02/12 02:32:13;;;;;;;0.60;0.60;;;20.40;39.30;;;;;;5113885;28;20082;-73
2022/02/12 02:34:49;;;;;;;0.75;0.70;;;20.40;39.30;;;;;;5112181;28;20097;-73
2022/02/12 02:37:14;;;;;;;0.63;0.50;;;20.40;39.30;;;;;;5113919;28;20055;-73
2022/02/12 02:39:41;;;;;;;1.48;0.60;;;20.40;39.20;;;;;;5113042;28;20052;-73
2022/02/12 02:42:06;;;;;;;1.10;0.88;;;20.40;39.20;;;;;;5113426;28;20055;-73
2022/02/12 02:44:32;;;;;;;0.50;0.50;;;20.40;39.20;;;;;;5114082;28;20134;-73
2022/02/12 02:46:57;;;;;;;0.70;0.70;;;20.40;39.20;;;;;;5113956;28;20475;-73
2022/02/12 02:49:23;;;;;;;0.75;0.70;;;20.40;39.20;;;;;;5111527;28;20125;-73
2022/02/12 02:57:17;;;;;;;0.95;0.70;;;20.40;39.30;;;;;;5113414;28;20032;-73
2022/02/12 02:59:42;;;;;;;0.85;0.65;;;20.40;39.20;;;;;;5113350;28;20132;-73
2022/02/12 03:02:08;;;;;;;0.82;0.75;;;20.40;39.20;;;;;;5113363;28;20051;-73
2022/02/12 03:04:33;;;;;;;0.63;0.60;;;20.40;39.20;;;;;;5095046;28;20051;-73
2022/02/12 03:06:59;;;;;;;0.65;0.60;;;20.40;39.20;;;;;;5095277;28;20380;-73
2022/02/12 03:09:26;;;;;;;0.50;0.50;;;20.40;39.20;;;;;;5113152;28;20415;-73
2022/02/12 03:11:52;;;;;;;0.63;0.60;;;20.40;39.20;;;;;;5113368;28;20044;-73
2022/02/12 03:14:18;;;;;;;0.52;0.52;;;20.40;39.20;;;;;;5095256;28;20047;-73
2022/02/12 03:16:43;;;;;;;1.15;0.80;;;20.40;39.20;;;;;;5113225;28;20188;-73
2022/02/12 03:19:09;;;;;;;0.93;0.63;;;20.40;39.20;;;;;;5112841;28;20051;-73
2022/02/12 03:21:35;;;;;;;0.65;0.60;;;20.40;39.20;;;;;;5113298;28;20052;-72
2022/02/12 03:24:00;;;;;;;1.23;0.88;;;20.40;39.20;;;;;;5113472;28;20047;-73
2022/02/12 03:26:26;;;;;;;1.58;0.82;;;20.40;39.20;;;;;;5113716;28;20054;-73
2022/02/12 03:28:51;;;;;;;0.98;0.70;;;20.30;39.10;;;;;;5113099;28;20042;-73
2022/02/12 03:31:17;;;;;;;0.98;0.65;;;20.40;39.20;;;;;;5113036;28;20439;-73
2022/02/12 03:33:43;;;;;;;0.80;0.80;;;20.40;39.20;;;;;;5113569;28;20426;-73
2022/02/12 03:36:08;;;;;;;0.57;0.55;;;20.40;39.20;;;;;;5113055;28;20408;-73
2022/02/12 03:38:36;;;;;;;0.60;0.52;;;20.40;39.20;;;;;;5094430;28;20052;-73
2022/02/12 03:41:04;;;;;;;0.77;0.75;;;20.40;39.20;;;;;;5112999;28;20051;-73
2022/02/12 03:43:33;;;;;;;0.60;0.60;;;20.40;39.20;;;;;;5112930;28;20083;-73
2022/02/12 03:45:59;;;;;;;0.77;0.63;;;20.40;39.10;;;;;;5094677;28;20054;-73
2022/02/12 03:48:26;;;;;;;0.73;0.73;;;20.40;39.20;;;;;;5094723;28;20403;-73
2022/02/12 03:50:52;;;;;;;0.90;0.85;;;20.40;39.20;;;;;;5094553;28;20054;-73
2022/02/12 03:53:18;;;;;;;0.90;0.70;;;20.40;39.20;;;;;;5115013;28;20051;-73
2022/02/12 03:55:44;;;;;;;0.82;0.73;;;20.40;39.20;;;;;;5116173;28;20044;-73
2022/02/12 03:58:14;;;;;;;1.30;0.70;;;20.40;39.20;;;;;;5098126;28;20096;-73
2022/02/12 04:00:43;;;;;;;0.82;0.70;;;20.40;39.10;;;;;;5116369;28;20435;-73
2022/02/12 04:03:10;;;;;;;0.73;0.70;;;20.50;39.20;;;;;;5116541;28;20066;-73
2022/02/12 04:05:37;;;;;;;0.73;0.68;;;20.40;39.10;;;;;;5097738;28;20087;-73
2022/02/12 04:08:04;;;;;;;0.88;0.68;;;20.40;39.10;;;;;;5116209;28;20048;-73
2022/02/12 04:10:29;;;;;;;0.60;0.60;;;20.40;39.10;;;;;;5096288;28;20091;-73
2022/02/12 04:12:55;;;;;;;0.98;0.88;;;20.50;39.20;;;;;;5097957;28;20518;-73
2022/02/12 04:15:22;;;;;;;1.33;0.80;;;20.50;39.10;;;;;;5115691;28;20051;-73
2022/02/12 04:17:49;;;;;;;0.77;0.60;;;20.50;39.10;;;;;;5116158;28;20055;-73
2022/02/12 04:20:18;;;;;;;0.57;0.57;;;20.50;39.10;;;;;;5115631;28;20047;-73
2022/02/12 04:22:45;;;;;;;0.68;0.60;;;20.50;39.10;;;;;;5115968;28;20039;-73
2022/02/12 04:25:13;;;;;;;0.75;0.60;;;20.50;39.10;;;;;;5097707;28;20060;-73
2022/02/12 04:27:39;;;;;;;0.73;0.73;;;20.50;39.10;;;;;;5115691;28;20056;-73
2022/02/12 04:30:07;;;;;;;0.75;0.75;;;20.50;39.10;;;;;;5115948;28;20436;-73
2022/02/12 04:32:33;;;;;;;0.60;0.60;;;20.50;39.00;;;;;;5115812;28;20043;-73
2022/02/12 04:35:02;;;;;;;1.00;0.90;;;20.50;39.00;;;;;;5115962;28;20491;-73
2022/02/12 04:37:28;;;;;;;0.60;0.60;;;20.50;39.00;;;;;;5115583;28;20059;-73
2022/02/12 04:39:54;;;;;;;0.60;0.60;;;20.50;39.60;;;;;;5115310;28;20537;-73
2022/02/12 04:42:19;;;;;;;0.88;0.65;;;20.50;39.00;;;;;;5115767;28;20075;-73
2022/02/12 04:44:47;;;;;;;0.68;0.60;;;20.50;39.00;;;;;;5115591;28;20458;-73
2022/02/12 04:47:13;;;;;;;1.60;0.80;;;20.50;39.00;;;;;;5115521;28;20138;-73
2022/02/12 04:49:40;;;;;;;0.63;0.63;;;20.60;39.10;;;;;;5115384;28;20079;-73
2022/02/12 04:52:08;;;;;;;0.70;0.60;;;20.60;39.10;;;;;;5115494;28;20551;-73
2022/02/12 04:54:33;;;;;;;0.75;0.75;;;20.60;39.00;;;;;;5097097;28;20407;-73
2022/02/12 04:57:00;;;;;;;0.68;0.68;;;20.60;39.00;;;;;;5115777;28;20044;-73
2022/02/12 04:59:26;;;;;;;1.33;0.88;;;20.50;39.00;;;;;;5115161;28;20044;-73
2022/02/12 05:01:52;;;;;;;0.70;0.70;;;20.60;39.00;;;;;;5095295;28;20056;-73
2022/02/12 05:04:19;;;;;;;1.02;0.80;;;20.60;39.00;;;;;;5114397;28;20056;-73
2022/02/12 05:06:45;;;;;;;0.70;0.70;;;20.60;39.00;;;;;;5096997;28;20168;-73
2022/02/12 05:09:11;;;;;;;0.88;0.70;;;20.60;39.00;;;;;;5095534;28;20073;-73
2022/02/12 05:11:38;;;;;;;1.23;0.93;;;20.60;39.00;;;;;;5115085;28;20119;-73
2022/02/12 05:14:04;;;;;;;0.80;0.80;;;20.60;39.00;;;;;;5115519;28;20063;-73
2022/02/12 05:16:30;;;;;;;0.70;0.60;;;20.60;39.00;;;;;;5115176;28;20052;-73
2022/02/12 05:18:56;;;;;;;0.70;0.70;;;20.60;38.90;;;;;;5112273;28;20048;-73
2022/02/12 05:21:22;;;;;;;0.60;0.60;;;20.60;39.50;;;;;;5114981;28;20138;-73
2022/02/12 05:23:47;;;;;;;1.00;0.77;;;20.60;38.90;;;;;;5114079;28;20557;-73
2022/02/12 05:26:13;;;;;;;0.70;0.70;;;20.60;38.90;;;;;;5114862;28;20074;-73
2022/02/12 05:28:39;;;;;;;1.00;0.73;;;20.60;39.00;;;;;;5097276;28;20048;-73
2022/02/12 05:31:04;;;;;;;1.17;0.82;;;20.60;38.90;;;;;;5115515;28;20475;-73
2022/02/12 05:33:30;;;;;;;0.70;0.70;;;20.60;38.90;;;;;;5115185;28;20534;-73
2022/02/12 05:35:55;;;;;;;0.60;0.60;;;20.60;38.90;;;;;;5114849;28;20102;-73
2022/02/12 05:38:21;;;;;;;0.60;0.60;;;20.60;38.90;;;;;;5096350;28;20126;-73
2022/02/12 05:40:47;;;;;;;1.02;0.65;;;20.60;38.90;;;;;;5114721;28;20403;-73
2022/02/12 05:43:12;;;;;;;1.15;0.70;;;20.60;38.90;;;;;;5115051;28;20403;-73
2022/02/12 05:45:42;;;;;;;0.60;0.60;;;20.60;38.90;;;;;;5112977;28;20058;-73
2022/02/12 05:48:10;;;;;;;0.63;0.63;;;20.60;38.90;;;;;;5114586;28;20134;-73
2022/02/12 05:50:35;;;;;;;1.00;0.68;;;20.60;38.90;;;;;;5113297;28;20043;-73
2022/02/12 05:53:01;;;;;;;1.42;0.98;;;20.60;38.90;;;;;;5094740;28;20139;-73
2022/02/12 05:55:26;;;;;;;0.60;0.60;;;20.60;38.90;;;;;;5111668;28;20083;-73
2022/02/12 05:57:59;;;;;;;1.02;0.60;;;20.60;38.90;;;;;;5114534;28;20153;-73
2022/02/12 06:00:28;;;;;;;0.73;0.60;;;20.60;38.90;;;;;;5114687;28;20047;-73
2022/02/12 06:02:54;;;;;;;2.10;0.80;;;20.60;38.90;;;;;;5114182;28;20047;-73
2022/02/12 06:05:20;;;;;;;1.15;0.70;;;20.60;38.90;;;;;;5114125;28;20043;-73
2022/02/12 06:07:46;;;;;;;1.30;0.70;;;20.60;38.90;;;;;;5113964;28;20052;-73
2022/02/12 06:10:13;;;;;;;0.60;0.50;;;20.60;38.90;;;;;;5113953;28;20069;-73
2022/02/12 06:12:39;;;;;;;0.80;0.73;;;20.60;38.90;;;;;;5113798;28;20089;-73
2022/02/12 06:15:06;;;;;;;0.60;0.60;;;20.60;38.90;;;;;;5114234;28;20134;-73
2022/02/12 06:17:32;;;;;;;0.85;0.75;;;20.60;38.90;;;;;;5095896;28;20058;-73
2022/02/12 06:19:57;;;;;;;1.75;0.80;;;20.60;38.90;;;;;;5094201;28;20048;-73
2022/02/12 06:22:27;;;;;;;0.73;0.60;;;20.60;38.90;;;;;;5114057;28;20055;-73
2022/02/12 06:24:53;;;;;;;0.85;0.80;;;20.60;38.90;;;;;;5114095;28;20051;-73
2022/02/12 06:27:19;;;;;;;0.60;0.55;;;20.60;38.90;;;;;;5114013;28;20109;-73
2022/02/12 06:29:45;;;;;;;0.57;0.55;;;20.60;38.90;;;;;;5113813;28;20509;-75
2022/02/12 06:32:10;;;;;;;0.80;0.80;;;20.60;38.90;;;;;;5112936;28;20052;-73
2022/02/12 06:34:36;;;;;;;0.60;0.57;;;20.60;38.90;;;;;;5112590;28;20055;-73
2022/02/12 06:37:02;;;;;;;0.82;0.70;;;20.60;38.90;;;;;;5114063;28;20053;-73
2022/02/12 06:39:27;;;;;;;0.80;0.65;;;20.60;38.90;;;;;;5112307;28;20054;-73
2022/02/12 06:41:53;;;;;;;1.02;0.60;;;20.60;38.90;;;;;;5113998;28;20055;-73
2022/02/12 06:44:19;;;;;;;0.77;0.70;;;20.60;38.90;;;;;;5113722;28;20058;-73
2022/02/12 06:46:44;;;;;;;0.70;0.60;;;20.60;38.90;;;;;;5114004;28;20055;-73
2022/02/12 06:49:10;;;;;;;0.55;0.55;;;20.60;38.90;;;;;;5113598;28;20101;-73
2022/02/12 06:51:36;;;;;;;0.80;0.80;;;20.60;38.90;;;;;;5113531;28;20097;-73
2022/02/12 06:54:03;;;;;;;0.60;0.57;;;20.60;38.90;;;;;;5114185;28;20047;-73
2022/02/12 06:56:28;;;;;;;0.68;0.65;;;20.60;38.90;;;;;;5113652;28;20083;-73
2022/02/12 06:58:54;;;;;;;0.93;0.60;;;20.60;38.80;;;;;;5113392;28;20098;-73
2022/02/12 07:01:20;;;;;;;0.65;0.63;;;20.60;38.80;;;;;;5113683;28;20052;-73
2022/02/12 07:03:45;;;;;;;1.48;0.70;;;20.60;38.70;;;;;;5113581;28;20166;-73
2022/02/12 07:06:11;;;;;;;0.60;0.60;;;20.70;38.60;;;;;;5113720;28;20055;-73
2022/02/12 07:08:37;;;;;;;0.77;0.70;;;20.70;38.60;;;;;;5113241;28;20483;-73
2022/02/12 07:11:02;;;;;;;0.80;0.70;;;20.80;38.60;;;;;;5113425;28;20043;-73
2022/02/12 07:13:28;;;;;;;0.50;0.50;;;20.90;38.50;;;;;;5113329;28;20056;-73
2022/02/12 07:15:54;;;;;;;0.52;0.52;;;20.90;38.40;;;;;;5113488;28;20063;-73
2022/02/12 07:18:21;;;;;;;0.63;0.57;;;20.90;38.30;;;;;;5113176;28;20047;-73
2022/02/12 07:20:47;;;;;;;0.68;0.68;;;21.00;38.30;;;;;;5113008;28;20453;-73
2022/02/12 07:23:14;;;;;;;0.60;0.60;;;20.90;38.20;;;;;;5113197;28;20040;-73
2022/02/12 07:25:41;;;;;;;0.70;0.70;;;21.00;38.20;;;;;;5113092;28;20051;-73
2022/02/12 07:28:08;;;;;;;0.50;0.50;;;21.00;38.10;;;;;;5112823;28;20048;-74
2022/02/12 07:30:34;;;;;;;0.93;0.65;;;21.10;38.10;;;;;;5094800;28;20051;-73
2022/02/12 07:32:59;;;;;;;0.90;0.70;;;21.10;38.00;;;;;;5113343;28;20047;-73
2022/02/12 07:35:25;;;;;;;1.48;0.85;;;21.10;37.90;;;;;;5093849;28;20078;-73
2022/02/12 07:37:50;;;;;;;0.70;0.60;;;21.20;37.90;;;;;;5112631;28;20388;-73
2022/02/12 07:40:18;;;;;;;0.60;0.60;;;21.20;37.90;;;;;;5112442;28;20095;-73
2022/02/12 07:42:46;;;;;;;0.63;0.60;;;21.20;37.80;;;;;;5112880;28;20054;-73
2022/02/12 07:45:13;;;;;;;0.50;0.50;;;21.20;37.80;;;;;;5112590;28;20513;-73
2022/02/12 07:47:39;;;;;;;1.50;0.90;;;21.20;37.80;;;;;;5112985;28;20142;-73
2022/02/12 07:50:06;;;;;;;1.52;0.90;;;21.20;37.70;;;;;;5112874;28;20101;-73
2022/02/12 07:52:33;;;;;;;0.60;0.50;;;21.20;37.70;;;;;;5094432;28;20449;-73
2022/02/12 07:54:59;;;;;;;0.80;0.60;;;21.30;37.70;;;;;;5112861;28;20186;-73
2022/02/12 07:57:24;;;;;;;0.60;0.60;;;21.30;37.70;;;;;;5112646;28;20067;-73
2022/02/12 07:59:50;;;;;;;0.88;0.60;;;21.20;37.70;;;;;;5111378;28;20087;-73
2022/02/12 08:02:16;;;;;;;0.77;0.60;;;21.20;37.70;;;;;;5112739;28;20044;-73
2022/02/12 08:04:41;;;;;;;0.68;0.60;;;21.20;37.80;;;;;;5112990;28;20051;-73
2022/02/12 08:09:51;;;;;;;0.45;0.45;;;21.20;37.70;;;;;;5112970;28;20122;-73
2022/02/12 08:12:19;;;;;;;1.02;0.90;;;21.20;37.70;;;;;;5112504;28;20078;-73
2022/02/12 08:14:48;;;;;;;0.60;0.60;;;21.20;37.70;;;;;;5112598;28;20075;-73
2022/02/12 08:17:16;;;;;;;0.90;0.60;;;21.20;37.70;;;;;;5112458;28;20061;-73
2022/02/12 08:19:42;;;;;;;0.95;0.70;;;21.20;37.70;;;;;;5112258;28;20067;-73
2022/02/12 08:22:08;;;;;;;0.60;0.60;;;21.20;37.70;;;;;;5110459;28;20048;-73
2022/02/12 08:24:35;;;;;;;0.60;0.57;;;21.20;37.70;;;;;;5112436;28;20066;-73
2022/02/12 08:27:01;;;;;;;0.73;0.65;;;21.20;37.80;;;;;;5112394;28;20138;-73
2022/02/12 08:29:28;;;;;;;0.60;0.60;;;21.20;37.80;;;;;;5112221;28;20097;-73
2022/02/12 08:31:55;;;;;;;1.02;0.82;;;21.10;37.80;;;;;;5094017;28;20410;-73
2022/02/12 08:34:22;;;;;;;0.85;0.60;;;21.10;37.80;;;;;;5077356;28;20070;-73
2022/02/12 08:36:48;;;;;;;0.90;0.70;;;21.10;37.90;;;;;;5093970;28;20056;-73
2022/02/12 08:39:13;;;;;;;1.30;0.60;;;21.10;37.90;;;;;;5095499;28;20135;-73
2022/02/12 08:41:39;;;;;;;0.60;0.60;;;21.10;37.80;;;;;;5115657;28;20079;-73
2022/02/12 08:44:05;;;;;;;0.60;0.60;;;21.10;37.80;;;;;;5115675;28;20406;-73
2022/02/12 08:46:30;;;;;;;0.60;0.60;;;21.10;37.80;;;;;;5115906;28;20105;-73
2022/02/12 08:48:58;;;;;;;1.02;0.60;;;21.10;37.80;;;;;;5115795;28;20116;-73
2022/02/12 08:51:24;;;;;;;0.70;0.60;;;21.10;37.90;;;;;;5115453;28;20056;-73
2022/02/12 08:53:50;;;;;;;0.90;0.70;;;21.10;37.90;;;;;;5115608;28;20058;-73
2022/02/12 08:56:15;;;;;;;0.93;0.60;;;21.10;37.90;;;;;;5115527;28;20047;-73
2022/02/12 08:58:41;;;;;;;0.95;0.70;;;21.10;37.90;;;;;;5115795;28;20052;-73
2022/02/12 09:01:07;;;;;;;1.08;0.65;;;21.10;37.90;;;;;;5115483;28;20062;-73
2022/02/12 09:03:32;;;;;;;1.08;0.77;;;21.10;37.90;;;;;;5115726;28;20055;-73
2022/02/12 09:06:01;;;;;;;0.60;0.60;;;21.10;37.90;;;;;;5115312;28;20087;-73
2022/02/12 09:08:27;;;;;;;0.93;0.88;;;21.00;37.90;;;;;;5115343;28;20056;-73
2022/02/12 09:10:53;;;;;;;1.02;0.75;;;21.00;37.90;;;;;;5115301;28;20051;-73
2022/02/12 09:13:19;;;;;;;0.90;0.65;;;21.00;37.90;;;;;;5113965;28;20070;-73
2022/02/12 09:15:45;;;;;;;0.60;0.50;;;21.00;38.00;;;;;;5115116;28;20442;-73
2022/02/12 09:18:10;;;;;;;0.68;0.55;;;21.00;38.00;;;;;;5115030;28;20139;-73
2022/02/12 09:20:36;;;;;;;0.60;0.60;;;21.00;38.00;;;;;;5115007;28;20143;-73
2022/02/12 09:23:02;;;;;;;0.63;0.52;;;21.00;38.00;;;;;;5114797;28;20059;-73
2022/02/12 09:25:28;;;;;;;0.80;0.70;;;21.00;38.00;;;;;;5115096;28;20052;-73
2022/02/12 09:27:53;;;;;;;0.90;0.70;;;21.00;38.00;;;;;;5114949;28;20130;-74
2022/02/12 09:30:19;;;;;;;0.73;0.70;;;21.00;38.00;;;;;;5114671;28;20396;-73
2022/02/12 09:32:45;;;;;;;0.63;0.63;;;21.00;38.00;;;;;;5113848;28;20054;-73
2022/02/12 09:35:11;;;;;;;0.80;0.80;;;21.00;38.00;;;;;;5114591;28;20047;-73
2022/02/12 09:37:37;;;;;;;1.23;0.63;;;20.90;38.00;;;;;;5114737;28;20442;-73
2022/02/12 09:40:04;;;;;;;1.00;0.88;;;20.90;38.00;;;;;;5096415;28;20067;-74
2022/02/12 09:42:30;;;;;;;0.60;0.60;;;21.00;38.00;;;;;;5114817;28;20126;-73
2022/02/12 09:44:56;;;;;;;0.90;0.60;;;20.90;38.00;;;;;;5113334;28;20055;-73
2022/02/12 09:47:33;;;;;;;0.70;0.63;;;20.90;38.00;;;;;;5114910;28;20063;-74
2022/02/12 09:49:59;;;;;;;0.50;0.50;;;20.90;38.00;;;;;;5110401;28;20056;-73
2022/02/12 09:52:30;;;;;;;0.75;0.63;;;20.90;38.00;;;;;;5114547;28;20155;-74
2022/02/12 09:54:56;;;;;;;0.60;0.60;;;20.90;38.00;;;;;;5114900;28;20056;-73
2022/02/12 09:57:22;;;;;;;0.70;0.70;;;20.90;38.00;;;;;;5114737;28;20082;-73
2022/02/12 09:59:47;;;;;;;0.77;0.70;;;20.90;38.00;;;;;;5111458;28;20075;-73
2022/02/12 10:02:19;;;;;;;0.70;0.70;;;21.00;38.10;;;;;;5114313;28;20503;-73
2022/02/12 10:04:44;;;;;;;1.40;0.57;;;20.90;38.00;;;;;;5114727;28;20491;-74
2022/02/12 10:07:25;;;;;;;0.85;0.70;;;21.00;38.10;;;;;;5114197;28;20055;-74
2022/02/12 10:10:14;;;;;;;0.70;0.70;;;21.00;38.10;;;;;;5114333;28;20428;-73
2022/02/12 10:12:40;;;;;;;0.65;0.65;;;21.00;38.10;;;;;;5114220;28;20052;-73
2022/02/12 10:15:22;;;;;;;1.40;0.73;;;21.00;38.60;;;;;;5114153;28;20048;-73
2022/02/12 10:17:57;;;;;;;0.60;0.60;;;20.90;38.00;;;;;;5095872;28;20101;-73
2022/02/12 10:20:35;;;;;;;0.60;0.60;;;21.00;38.10;;;;;;5113726;28;20520;-74
2022/02/12 10:23:17;;;;;;;0.55;0.55;;;21.00;38.00;;;;;;5114337;28;20051;-73
2022/02/12 10:25:45;;;;;;;0.80;0.80;;;21.00;38.00;;;;;;5079252;28;20066;-73
2022/02/12 10:28:12;;;;;;;1.10;0.80;;;21.00;38.00;;;;;;5112525;28;20071;-74
2022/02/12 10:30:39;;;;;;;1.02;0.82;;;21.00;38.00;;;;;;5113910;28;20499;-73
2022/02/12 10:33:07;;;;;;;1.60;0.70;;;20.90;38.00;;;;;;5114008;28;20427;-73
2022/02/12 10:35:34;;;;;;;0.95;0.60;;;21.00;38.00;;;;;;5078359;28;20403;-73
2022/02/12 10:38:04;;;;;;;0.60;0.60;;;21.00;38.00;;;;;;5113745;28;20051;-73
2022/02/12 10:40:32;;;;;;;0.97;0.80;;;20.90;38.00;;;;;;5113701;28;20051;-74
2022/02/12 10:42:58;;;;;;;1.10;0.75;;;21.00;38.00;;;;;;5114265;28;20339;-73
2022/02/12 10:45:26;;;;;;;0.70;0.70;;;21.00;38.00;;;;;;5113548;28;20495;-73
2022/02/12 10:47:53;;;;;;;0.50;0.50;;;21.00;38.00;;;;;;5113640;28;20051;-73
2022/02/12 10:50:20;;;;;;;0.65;0.65;;;21.00;38.00;;;;;;5113379;28;20491;-73
2022/02/12 10:52:48;;;;;;;0.70;0.70;;;21.00;38.00;;;;;;5113623;28;20475;-73
2022/02/12 10:55:29;;;;;;;0.60;0.60;;;21.00;38.00;;;;;;5113402;28;20064;-73
2022/02/12 10:57:56;;;;;;;0.80;0.60;;;21.00;38.00;;;;;;5078282;28;20051;-73
2022/02/12 11:00:24;;;;;;;0.60;0.60;;;21.00;38.00;;;;;;5112789;28;20047;-73
2022/02/12 11:02:50;;;;;;;1.30;0.70;;;21.00;38.00;;;;;;5112905;28;20048;-73
2022/02/12 11:05:19;;;;;;;0.90;0.68;;;21.00;38.00;;;;;;5113215;28;20058;-73
2022/02/12 11:07:45;;;;;;;0.63;0.63;;;21.00;38.00;;;;;;5113666;28;20048;-73
2022/02/12 11:10:11;;;;;;;1.02;0.68;;;21.00;38.00;;;;;;5113419;28;20058;-73
2022/02/12 11:12:37;;;;;;;1.02;0.57;;;21.00;38.00;;;;;;5113409;28;20062;-73
2022/02/12 11:15:02;;;;;;;0.63;0.60;;;21.00;38.00;;;;;;5113227;28;20059;-73
2022/02/12 11:17:31;;;;;;;0.98;0.60;;;21.00;38.00;;;;;;5113208;28;20060;-73
2022/02/12 11:19:57;;;;;;;0.88;0.60;;;21.00;38.00;;;;;;5113002;28;20044;-73
2022/02/12 11:22:23;;;;;;;0.80;0.80;;;21.00;37.90;;;;;;5113232;28;20044;-73
2022/02/12 11:24:49;;;;;;;0.68;0.68;;;21.00;37.90;;;;;;5093431;28;20503;-73
2022/02/12 11:27:23;;;;;;;0.70;0.70;;;21.00;37.90;;;;;;5113109;28;20526;-73
2022/02/12 11:29:53;;;;;;;0.73;0.60;;;21.00;37.90;;;;;;5113369;28;20055;-73
2022/02/12 11:32:26;;;;;;;1.25;1.00;;;21.00;37.90;;;;;;5095374;28;20052;-73
2022/02/12 11:35:08;;;;;;;0.60;0.60;;;21.00;38.40;;;;;;5113120;28;20059;-73
2022/02/12 11:37:37;;;;;;;0.75;0.75;;;21.00;38.40;;;;;;5075760;28;20051;-73
2022/02/12 11:40:22;;;;;;;0.70;0.70;;;21.00;37.80;;;;;;5112915;28;20055;-73
2022/02/12 11:42:55;;;;;;;0.90;0.77;;;21.00;37.80;;;;;;5113008;28;20055;-73
2022/02/12 11:45:47;;;;;;;0.95;0.70;;;21.00;37.90;;;;;;5111303;28;20052;-73
2022/02/12 11:48:25;;;;;;;0.90;0.73;;;21.00;37.90;;;;;;5112803;28;20059;-73
2022/02/12 11:51:02;;;;;;;0.60;0.60;;;21.00;37.90;;;;;;5112758;28;20047;-73
2022/02/12 11:53:50;;;;;;;1.65;0.80;;;21.00;37.90;;;;;;5112924;28;20141;-73
2022/02/12 11:56:18;;;;;;;1.58;0.82;;;21.00;37.90;;;;;;5094398;28;20048;-73
2022/02/12 11:58:47;;;;;;;0.57;0.55;;;21.00;37.90;;;;;;5112738;28;20058;-73
2022/02/12 12:01:42;;;;;;;0.63;0.63;;;21.00;37.90;;;;;;5112703;28;20097;-73
2022/02/12 12:04:16;;;;;;;0.60;0.60;;;20.90;37.90;;;;;;5112598;28;20048;-73
2022/02/12 12:07:05;;;;;;;1.05;0.73;;;20.90;37.90;;;;;;5112563;28;20051;-73
2022/02/12 12:09:37;;;;;;;1.15;0.70;;;20.90;37.90;;;;;;5094373;28;20511;-74
2022/02/12 12:12:20;;;;;;;0.93;0.55;;;21.00;38.00;;;;;;5112925;28;20050;-73
2022/02/12 12:14:48;;;;;;;0.50;0.50;;;21.00;38.00;;;;;;5096805;28;20483;-73
2022/02/12 12:17:14;;;;;;;1.10;0.65;;;21.00;38.00;;;;;;5096085;28;20580;-73
2022/02/12 12:19:42;;;;;;;0.68;0.68;;;20.90;38.10;;;;;;5115770;28;20157;-73
2022/02/12 12:22:10;;;;;;;0.80;0.75;;;20.90;38.00;;;;;;5097771;28;20059;-73
2022/02/12 12:24:36;;;;;;;0.68;0.68;;;20.90;37.90;;;;;;5116203;28;20043;-73
2022/02/12 12:27:03;;;;;;;0.65;0.65;;;21.00;38.00;;;;;;5098235;28;20094;-73
2022/02/12 12:32:18;;;;;;;0.93;0.75;;;20.90;37.90;;;;;;5115951;28;20100;-73
2022/02/12 12:34:52;;;;;;;0.73;0.60;;;20.90;37.90;;;;;;5097918;28;20418;-73
2022/02/12 12:37:19;;;;;;;1.08;0.88;;;20.90;37.90;;;;;;5115873;28;20047;-73
2022/02/12 12:39:45;;;;;;;1.38;0.70;;;20.90;38.00;;;;;;5113602;28;20136;-73
2022/02/12 12:42:18;;;;;;;0.80;0.70;;;20.90;38.00;;;;;;5115627;28;20505;-73
2022/02/12 12:44:58;;;;;;;0.57;0.57;;;20.90;38.00;;;;;;5097525;28;20051;-73
2022/02/12 12:47:24;;;;;;;0.73;0.70;;;20.90;38.00;;;;;;5115559;28;20162;-73
2022/02/12 12:49:53;;;;;;;0.60;0.60;;;20.90;38.00;;;;;;5115651;28;20151;-73
2022/02/12 12:52:23;;;;;;;0.57;0.57;;;20.90;38.00;;;;;;5115611;28;20188;-73
2022/02/12 12:54:54;;;;;;;0.88;0.70;;;20.90;38.00;;;;;;5115839;28;20048;-73
2022/02/12 12:57:27;;;;;;;0.65;0.50;;;20.90;38.00;;;;;;5115605;28;20074;-73
2022/02/12 12:59:54;;;;;;;0.82;0.60;;;20.90;38.00;;;;;;5096081;28;20055;-74